Map

Track Data

SID SEASON NUMBER BASIN SUBBASIN NAME ISO_TIME NATURE LAT LON WMO_WIND WMO_PRES WMO_AGENCY TRACK_TYPE DIST2LAND LANDFALL IFLAG USA_AGENCY USA_ATCF_ID USA_LAT USA_LON USA_RECORD USA_STATUS USA_WIND USA_PRES USA_SSHS USA_R34_NE USA_R34_SE USA_R34_SW USA_R34_NW USA_R50_NE USA_R50_SE USA_R50_SW USA_R50_NW USA_R64_NE USA_R64_SE USA_R64_SW USA_R64_NW USA_POCI USA_ROCI USA_RMW USA_EYE TOKYO_LAT TOKYO_LON TOKYO_GRADE TOKYO_WIND TOKYO_PRES TOKYO_R50_DIR TOKYO_R50_LONG TOKYO_R50_SHORT TOKYO_R30_DIR TOKYO_R30_LONG TOKYO_R30_SHORT TOKYO_LAND CMA_LAT CMA_LON CMA_CAT CMA_WIND CMA_PRES HKO_LAT HKO_LON HKO_CAT HKO_WIND HKO_PRES NEWDELHI_LAT NEWDELHI_LON NEWDELHI_GRADE NEWDELHI_WIND NEWDELHI_PRES NEWDELHI_CI NEWDELHI_DP NEWDELHI_POCI REUNION_LAT REUNION_LON REUNION_TYPE REUNION_WIND REUNION_PRES REUNION_TNUM REUNION_CI REUNION_RMW REUNION_R34_NE REUNION_R34_SE REUNION_R34_SW REUNION_R34_NW REUNION_R50_NE REUNION_R50_SE REUNION_R50_SW REUNION_R50_NW REUNION_R64_NE REUNION_R64_SE REUNION_R64_SW REUNION_R64_NW BOM_LAT BOM_LON BOM_TYPE BOM_WIND BOM_PRES BOM_TNUM BOM_CI BOM_RMW BOM_R34_NE BOM_R34_SE BOM_R34_SW BOM_R34_NW BOM_R50_NE BOM_R50_SE BOM_R50_SW BOM_R50_NW BOM_R64_NE BOM_R64_SE BOM_R64_SW BOM_R64_NW BOM_ROCI BOM_POCI BOM_EYE BOM_POS_METHOD BOM_PRES_METHOD NADI_LAT NADI_LON NADI_CAT NADI_WIND NADI_PRES WELLINGTON_LAT WELLINGTON_LON WELLINGTON_WIND WELLINGTON_PRES DS824_LAT DS824_LON DS824_STAGE DS824_WIND DS824_PRES TD9636_LAT TD9636_LON TD9636_STAGE TD9636_WIND TD9636_PRES TD9635_LAT TD9635_LON TD9635_WIND TD9635_PRES TD9635_ROCI NEUMANN_LAT NEUMANN_LON NEUMANN_CLASS NEUMANN_WIND NEUMANN_PRES MLC_LAT MLC_LON MLC_CLASS MLC_WIND MLC_PRES USA_GUST BOM_GUST BOM_GUST_PER REUNION_GUST REUNION_GUST_PER USA_SEAHGT USA_SEARAD_NE USA_SEARAD_SE USA_SEARAD_SW USA_SEARAD_NW STORM_SPEED STORM_DIR
2020352S26195 2021 112 SP MM ZAZU 2020-12-16 18:00:00 NR -25.9000 -165.400 wellington main 1527 1527 ________O_____ -1 -25.9000 -165.400 -1 25 0
2020352S26195 2021 112 SP MM ZAZU 2020-12-16 21:00:00 NR -27.1476 -165.417 main 1646 1646 ________P_____ -1 -27.1476 -165.417 24 179
2020352S26195 2021 112 SP MM ZAZU 2020-12-17 00:00:00 NR -28.3000 -165.400 wellington main 1767 1762 ________O_____ -1 -28.3000 -165.400 -1 22 178
2020352S26195 2021 112 SP MM ZAZU 2020-12-17 03:00:00 NR -29.2949 -165.336 main 1755 1704 ________P_____ -1 -29.2949 -165.336 19 177
2020352S26195 2021 112 SP MM ZAZU 2020-12-17 06:00:00 NR -30.2000 -165.300 wellington main 1698 1630 ________O_____ -1 -30.2000 -165.300 -1 20 182
2020352S26195 2021 112 SP MM ZAZU 2020-12-17 09:00:00 NR -31.2650 -165.421 main 1624 1578 ________P_____ -1 -31.2650 -165.421 18 186
2020352S26195 2021 112 SP MM ZAZU 2020-12-17 12:00:00 NR -32.0000 -165.500 wellington main 1578 1572 ________O_____ -1 -32.0000 -165.500 -1 8 179
2020352S26195 2021 112 SP MM ZAZU 2020-12-17 15:00:00 NR -32.0371 -165.398 main 1586 1586 ________P_____ -1 -32.0371 -165.398 5 48
2020352S26195 2021 112 SP MM ZAZU 2020-12-17 18:00:00 NR -31.7000 -165.100 wellington main 1627 1627 ________O_____ -1 -31.7000 -165.100 -1 9 45
2020352S26195 2021 112 SP MM ZAZU 2020-12-17 21:00:00 NR -31.3872 -164.640 main 1684 1684 ________P_____ -1 -31.3872 -164.640 12 53
2020352S26195 2021 112 SP MM ZAZU 2020-12-18 00:00:00 NR -31.0000 -164.000 wellington main 1756 1756 ________O_____ -1 -31.0000 -164.000 -1 14 54
2020352S26195 2021 112 SP MM ZAZU 2020-12-18 03:00:00 NR -30.5540 -163.289 main 1836 1836 ________P_____ -1 -30.5540 -163.289 16 60
2020352S26195 2021 112 SP MM ZAZU 2020-12-18 06:00:00 NR -30.2000 -162.400 wellington main 1933 1933 ________O_____ -1 -30.2000 -162.400 -1 18 74
2020352S26195 2021 112 SP MM ZAZU 2020-12-18 09:00:00 NR -30.0613 -161.258 main 2030 2030 ________P_____ -1 -30.0613 -161.258 20 87
2020352S26195 2021 112 SP MM ZAZU 2020-12-18 12:00:00 NR -30.1000 -160.100 wellington main 2130 2130 ________O_____ -1 -30.1000 -160.100 -1 18 97
2020352S26195 2021 112 SP MM ZAZU 2020-12-18 15:00:00 NR -30.2691 -159.169 main 2195 2195 ________P_____ -1 -30.2691 -159.169 15 105
2020352S26195 2021 112 SP MM ZAZU 2020-12-18 18:00:00 NR -30.5000 -158.400 wellington main 2253 2253 ________O_____ -1 -30.5000 -158.400 -1 13 107
2020352S26195 2021 112 SP MM ZAZU 2020-12-18 21:00:00 NR -30.6491 -157.762 main 2299 2299 ________P_____ -1 -30.6491 -157.762 11 106
2020352S26195 2021 112 SP MM ZAZU 2020-12-19 00:00:00 NR -30.8000 -157.200 wellington main 2341 2341 ________O_____ -1 -30.8000 -157.200 -1 10 109
2020352S26195 2021 112 SP MM ZAZU 2020-12-19 03:00:00 NR -30.9884 -156.613 main 2383 2383 ________P_____ -1 -30.9884 -156.613 11 111
2020352S26195 2021 112 SP MM ZAZU 2020-12-19 06:00:00 NR -31.2000 -156.000 wellington main 2425 ________O_____ -1 -31.2000 -156.000 -1 11 112

Digital Typhoon Data and Search

About IBTrACS Database

This database is a web-friendly format of International Best Track Archive for Climate Stewardship (IBTrACS), a global best track data archive curated by NOAA dating back to 1842.

Updated: 2022-01-14